createdAt,value
2023-08-16T00:01:17.805Z,69.40
2023-08-16T00:04:24.093Z,69.50
2023-08-16T00:07:35.855Z,69.60
2023-08-16T00:10:41.224Z,69.60
2023-08-16T00:13:48.465Z,69.60
2023-08-16T00:16:53.793Z,69.70
2023-08-16T00:20:01.144Z,69.70
2023-08-16T00:23:09.222Z,69.70
2023-08-16T00:26:16.848Z,69.80
2023-08-16T00:29:22.208Z,69.90
2023-08-16T00:32:36.650Z,69.90
2023-08-16T00:35:42.022Z,70.00
2023-08-16T00:38:53.012Z,69.90
2023-08-16T00:41:58.370Z,70.00
2023-08-16T00:45:05.735Z,70.00
2023-08-16T00:48:11.315Z,70.10
2023-08-16T00:51:38.913Z,70.20
2023-08-16T00:54:46.961Z,70.20
2023-08-16T00:57:56.915Z,70.30
2023-08-16T01:01:02.564Z,70.30
2023-08-16T01:04:10.524Z,70.40
2023-08-16T01:07:16.091Z,70.30
2023-08-16T01:10:34.636Z,70.40
2023-08-16T01:13:48.334Z,71.10
2023-08-16T01:16:56.678Z,70.50
2023-08-16T01:20:05.835Z,70.50
2023-08-16T01:23:18.440Z,70.50
2023-08-16T01:26:32.650Z,70.60
2023-08-16T01:29:41.664Z,70.60
2023-08-16T01:32:47.125Z,70.60
2023-08-16T01:35:54.450Z,70.60
2023-08-16T01:39:00.438Z,70.60
2023-08-16T01:42:14.926Z,70.70
2023-08-16T01:45:22.322Z,70.80
2023-08-16T01:48:32.572Z,70.80
2023-08-16T01:51:38.536Z,70.80
2023-08-16T01:54:46.399Z,70.90
2023-08-16T01:57:54.262Z,70.90
2023-08-16T02:01:01.985Z,71.00
2023-08-16T02:04:07.601Z,71.00
2023-08-16T02:07:15.008Z,71.00
2023-08-16T02:10:21.017Z,71.10
2023-08-16T02:13:31.341Z,71.20
2023-08-16T02:16:36.691Z,71.30
2023-08-16T02:19:44.019Z,71.20
2023-08-16T02:22:49.333Z,71.40
2023-08-16T02:25:57.225Z,71.30
2023-08-16T02:29:06.332Z,71.30
2023-08-16T02:32:13.663Z,71.30
2023-08-16T02:35:19.246Z,71.30
2023-08-16T02:38:26.648Z,71.40
2023-08-16T02:41:33.381Z,71.40
2023-08-16T02:44:43.450Z,71.40
2023-08-16T02:47:49.452Z,71.60
2023-08-16T02:50:56.907Z,71.60
2023-08-16T02:54:02.749Z,71.60
2023-08-16T02:57:10.086Z,71.60
2023-08-16T03:00:19.818Z,71.60
2023-08-16T03:03:27.556Z,71.80
2023-08-16T03:06:32.968Z,71.80
2023-08-16T03:09:40.844Z,71.80
2023-08-16T03:12:46.084Z,71.80
2023-08-16T03:15:56.028Z,71.80
2023-08-16T03:19:01.582Z,71.90
2023-08-16T03:22:10.371Z,71.90
2023-08-16T03:25:15.746Z,71.80
2023-08-16T03:28:23.065Z,71.90
2023-08-16T03:31:31.297Z,71.90
2023-08-16T03:34:38.717Z,72.00
2023-08-16T03:37:44.793Z,72.00
2023-08-16T03:40:52.068Z,72.10
2023-08-16T03:43:57.443Z,72.10
2023-08-16T03:47:07.923Z,72.10
2023-08-16T03:50:13.716Z,72.20
2023-08-16T03:53:21.087Z,72.20
2023-08-16T03:56:26.340Z,72.30
2023-08-16T03:59:35.908Z,72.40
2023-08-16T04:02:43.982Z,72.40
2023-08-16T04:05:54.169Z,72.50
2023-08-16T04:08:59.500Z,72.60
2023-08-16T04:12:07.545Z,72.60
2023-08-16T04:15:14.012Z,72.60
2023-08-16T04:18:23.884Z,72.70
2023-08-16T04:21:29.144Z,72.70
2023-08-16T04:24:36.397Z,72.60
2023-08-16T04:27:41.903Z,72.70
2023-08-16T04:30:49.287Z,72.80
2023-08-16T04:33:57.180Z,72.80
2023-08-16T04:37:04.927Z,72.90
2023-08-16T04:40:11.678Z,72.90
2023-08-16T04:43:20.008Z,73.00
2023-08-16T04:46:26.313Z,73.00
2023-08-16T04:49:36.345Z,73.10
2023-08-16T04:52:42.357Z,73.20
2023-08-16T04:55:50.018Z,73.20
2023-08-16T04:58:55.490Z,73.30
2023-08-16T05:02:03.959Z,73.40
2023-08-16T05:05:12.576Z,73.50
2023-08-16T05:08:20.022Z,73.60
2023-08-16T05:11:25.327Z,73.60
2023-08-16T05:14:32.726Z,74.20
2023-08-16T05:17:38.054Z,73.70
2023-08-16T05:20:49.658Z,73.70
2023-08-16T05:23:55.361Z,73.80
2023-08-16T05:27:02.669Z,73.80
2023-08-16T05:30:09.791Z,73.80
2023-08-16T05:33:17.266Z,73.90
2023-08-16T05:36:25.362Z,73.90
2023-08-16T05:39:32.862Z,74.00
2023-08-16T05:42:38.141Z,74.00
2023-08-16T05:45:45.491Z,74.10
2023-08-16T05:48:50.792Z,74.10
2023-08-16T05:52:00.641Z,74.10
2023-08-16T05:55:05.991Z,74.30
2023-08-16T05:58:13.506Z,74.20
2023-08-16T06:01:19.112Z,74.30
2023-08-16T06:04:27.066Z,74.30
2023-08-16T06:07:34.951Z,74.30
2023-08-16T06:10:42.338Z,74.50
2023-08-16T06:13:47.601Z,74.50
2023-08-16T06:16:54.912Z,74.50
2023-08-16T06:20:00.529Z,74.60
2023-08-16T06:23:10.505Z,74.60
2023-08-16T06:26:15.791Z,74.80
2023-08-16T06:29:23.162Z,74.80
2023-08-16T06:32:28.469Z,74.80
2023-08-16T06:35:35.749Z,74.80
2023-08-16T06:38:45.015Z,74.80
2023-08-16T06:41:52.554Z,75.00
2023-08-16T06:44:59.613Z,74.90
2023-08-16T06:48:07.947Z,74.90
2023-08-16T06:51:13.315Z,75.00
2023-08-16T06:54:23.261Z,75.10
2023-08-16T06:57:28.653Z,75.20
2023-08-16T07:00:36.193Z,75.20
2023-08-16T07:03:42.425Z,75.20
2023-08-16T07:06:49.966Z,75.20
2023-08-16T07:09:57.866Z,75.20
2023-08-16T07:13:05.458Z,75.30
2023-08-16T07:16:11.013Z,75.20
2023-08-16T07:19:18.396Z,75.20
2023-08-16T07:22:26.135Z,75.20
2023-08-16T07:25:36.744Z,75.70
2023-08-16T07:28:42.073Z,75.20
2023-08-16T07:31:49.906Z,75.00
2023-08-16T07:34:55.590Z,75.10
2023-08-16T07:38:04.068Z,75.10
2023-08-16T07:41:11.931Z,75.20
2023-08-16T07:44:19.351Z,75.10
2023-08-16T07:47:24.906Z,75.00
2023-08-16T07:50:32.678Z,75.00
2023-08-16T07:53:38.166Z,75.10
2023-08-16T07:56:48.067Z,75.00
2023-08-16T07:59:53.343Z,75.10
2023-08-16T08:03:01.852Z,75.00
2023-08-16T08:06:10.690Z,75.10
2023-08-16T08:09:18.245Z,75.10
2023-08-16T08:12:26.492Z,75.10
2023-08-16T08:15:34.134Z,75.20
2023-08-16T08:18:39.690Z,75.80
2023-08-16T08:21:47.144Z,75.10
2023-08-16T08:24:52.587Z,75.10
2023-08-16T08:28:02.574Z,75.00
2023-08-16T08:31:07.888Z,75.10
2023-08-16T08:34:17.733Z,75.00
2023-08-16T08:37:23.894Z,75.10
2023-08-16T08:40:33.635Z,75.10
2023-08-16T08:43:58.946Z,74.90
2023-08-16T08:50:38.639Z,74.40
2023-08-16T08:51:37.343Z,74.70
2023-08-16T08:53:48.200Z,74.00
2023-08-16T08:56:56.399Z,73.60
2023-08-16T09:00:10.742Z,73.20
2023-08-16T09:03:17.202Z,73.00
2023-08-16T09:06:24.687Z,72.70
2023-08-16T09:09:30.902Z,72.40
2023-08-16T09:12:38.740Z,72.00
2023-08-16T09:15:46.954Z,71.60
2023-08-16T09:18:55.407Z,71.40
2023-08-16T09:22:01.027Z,71.20
2023-08-16T09:25:12.922Z,71.00
2023-08-16T09:28:18.796Z,70.80
2023-08-16T09:31:31.196Z,70.50
2023-08-16T09:34:48.228Z,70.10
2023-08-16T09:37:59.837Z,70.00
2023-08-16T09:41:05.140Z,69.80
2023-08-16T09:44:13.077Z,69.60
2023-08-16T09:47:22.123Z,69.40
2023-08-16T09:50:30.640Z,69.20
2023-08-16T09:53:38.837Z,69.10
2023-08-16T09:59:58.537Z,68.60
2023-08-16T10:03:10.201Z,68.40
2023-08-16T10:09:29.817Z,68.00
2023-08-16T10:12:36.431Z,67.80
2023-08-16T10:15:48.313Z,67.60
2023-08-16T10:18:58.407Z,67.40
2023-08-16T10:22:16.388Z,67.40
2023-08-16T10:25:48.193Z,67.40
2023-08-16T10:29:01.255Z,67.20
2023-08-16T10:32:09.082Z,67.20
2023-08-16T10:35:19.738Z,67.10
2023-08-16T10:38:25.182Z,66.90
2023-08-16T10:41:43.661Z,66.70
2023-08-16T10:44:54.285Z,66.30
2023-08-16T10:48:11.467Z,66.20
2023-08-16T10:51:19.622Z,66.30
2023-08-16T10:54:36.110Z,66.10
2023-08-16T10:57:41.457Z,66.60
2023-08-16T11:00:57.061Z,66.00
2023-08-16T11:04:04.170Z,65.80
2023-08-16T11:07:16.120Z,65.70
2023-08-16T11:10:21.879Z,65.50
2023-08-16T11:13:32.210Z,65.70
2023-08-16T11:16:37.695Z,65.60
2023-08-16T11:19:47.651Z,65.50
2023-08-16T11:22:57.254Z,65.40
2023-08-16T11:26:05.421Z,65.20
2023-08-16T11:29:10.850Z,65.00
2023-08-16T11:32:18.328Z,64.80
2023-08-16T11:35:25.068Z,64.80
2023-08-16T11:38:35.784Z,64.30
2023-08-16T11:41:41.464Z,63.90
2023-08-16T11:44:48.905Z,63.90
2023-08-16T11:47:55.208Z,63.80
2023-08-16T11:51:02.827Z,63.60
2023-08-16T11:54:11.169Z,63.40
2023-08-16T11:57:21.895Z,62.90
2023-08-16T12:00:32.019Z,62.60
2023-08-16T12:03:40.081Z,62.30
2023-08-16T12:06:50.662Z,62.30
2023-08-16T12:10:03.538Z,61.90
2023-08-16T12:13:16.333Z,61.90
2023-08-16T12:16:23.750Z,61.50
2023-08-16T12:22:36.807Z,60.80
2023-08-16T12:25:44.952Z,60.90
2023-08-16T12:28:52.632Z,60.50
2023-08-16T12:31:58.074Z,60.40
2023-08-16T12:35:05.531Z,60.20
2023-08-16T12:38:11.251Z,60.00
2023-08-16T12:41:24.510Z,59.80
2023-08-16T12:44:29.907Z,59.00
2023-08-16T12:47:37.422Z,59.10
2023-08-16T12:50:42.773Z,59.00
2023-08-16T12:53:50.126Z,58.80
2023-08-16T12:57:06.798Z,58.70
2023-08-16T13:00:24.208Z,58.40
2023-08-16T13:03:32.758Z,59.10
2023-08-16T13:06:52.402Z,58.50
2023-08-16T13:10:02.222Z,58.40
2023-08-16T13:13:13.039Z,58.20
2023-08-16T13:22:50.317Z,57.60
2023-08-16T13:26:14.386Z,57.50
2023-08-16T13:29:26.000Z,57.40
2023-08-16T13:32:43.522Z,57.20
2023-08-16T13:36:03.368Z,57.30
2023-08-16T13:39:27.526Z,57.20
2023-08-16T13:42:37.621Z,57.10
2023-08-16T13:45:49.427Z,57.20
2023-08-16T13:48:57.624Z,56.90
2023-08-16T13:52:06.377Z,57.00
2023-08-16T13:55:13.107Z,56.80
2023-08-16T13:58:20.516Z,56.70
2023-08-16T14:01:28.492Z,56.60
2023-08-16T14:04:35.904Z,56.40
2023-08-16T14:07:43.653Z,56.40
2023-08-16T14:10:54.518Z,56.30
2023-08-16T14:13:59.857Z,56.30
2023-08-16T14:17:09.923Z,56.30
2023-08-16T14:20:15.538Z,56.30
2023-08-16T14:23:22.936Z,56.40
2023-08-16T14:26:28.438Z,56.50
2023-08-16T14:29:37.589Z,56.30
2023-08-16T14:32:46.303Z,56.30
2023-08-16T14:35:53.771Z,56.30
2023-08-16T14:39:00.859Z,56.40
2023-08-16T14:42:08.825Z,56.60
2023-08-16T14:45:14.581Z,56.50
2023-08-16T14:48:24.645Z,56.50
2023-08-16T14:51:29.973Z,56.30
2023-08-16T14:54:37.322Z,56.30
2023-08-16T14:57:48.251Z,56.30
2023-08-16T15:00:55.627Z,56.30
2023-08-16T15:04:03.644Z,56.40
2023-08-16T15:07:11.021Z,56.50
2023-08-16T15:10:16.577Z,57.10
2023-08-16T15:13:25.926Z,56.60
2023-08-16T15:16:31.485Z,56.70
2023-08-16T15:19:42.524Z,56.60
2023-08-16T15:22:48.012Z,56.50
2023-08-16T15:25:58.070Z,56.50
2023-08-16T15:29:03.711Z,56.50
2023-08-16T15:32:11.343Z,56.60
2023-08-16T15:35:19.355Z,56.70
2023-08-16T15:38:46.297Z,56.60
2023-08-16T15:41:52.048Z,56.50
2023-08-16T15:45:02.308Z,56.70
2023-08-16T15:48:10.964Z,56.60
2023-08-16T15:51:20.867Z,56.60
2023-08-16T15:54:26.140Z,56.40
2023-08-16T15:57:33.508Z,56.40
2023-08-16T16:00:40.462Z,56.40
2023-08-16T16:03:47.750Z,56.50
2023-08-16T16:06:55.987Z,56.50
2023-08-16T16:10:04.753Z,56.50
2023-08-16T16:13:10.516Z,56.60
2023-08-16T16:16:19.990Z,56.60
2023-08-16T16:19:25.789Z,56.60
2023-08-16T16:22:35.735Z,56.70
2023-08-16T16:25:41.270Z,56.70
2023-08-16T16:28:48.639Z,56.70
2023-08-16T16:31:54.098Z,56.70
2023-08-16T16:35:01.555Z,56.60
2023-08-16T16:38:10.019Z,56.70
2023-08-16T16:41:17.449Z,56.80
2023-08-16T16:44:22.789Z,56.80
2023-08-16T16:47:30.235Z,56.80
2023-08-16T16:50:35.831Z,56.90
2023-08-16T16:53:45.708Z,56.90
2023-08-16T16:56:51.045Z,56.90
2023-08-16T16:59:58.858Z,57.10
2023-08-16T17:03:04.257Z,57.10
2023-08-16T17:06:11.596Z,57.20
2023-08-16T17:09:19.571Z,57.30
2023-08-16T17:12:26.944Z,57.30
2023-08-16T17:15:32.262Z,57.40
2023-08-16T17:18:39.618Z,57.60
2023-08-16T17:21:45.894Z,57.60
2023-08-16T17:24:55.938Z,57.70
2023-08-16T17:28:01.300Z,57.70
2023-08-16T17:31:10.072Z,57.80
2023-08-16T17:34:15.613Z,57.80
2023-08-16T17:37:23.141Z,57.90
2023-08-16T17:40:31.442Z,58.00
2023-08-16T17:43:39.111Z,58.10
2023-08-16T17:46:45.180Z,58.20
2023-08-16T17:49:52.998Z,58.20
2023-08-16T17:52:58.722Z,58.30
2023-08-16T17:56:08.872Z,58.40
2023-08-16T17:59:14.183Z,58.60
2023-08-16T18:02:21.751Z,58.80
2023-08-16T18:05:27.392Z,58.90
2023-08-16T18:08:34.780Z,59.00
2023-08-16T18:11:43.188Z,59.00
2023-08-16T18:14:50.693Z,59.20
2023-08-16T18:17:55.980Z,59.30
2023-08-16T18:21:05.962Z,59.30
2023-08-16T18:24:11.688Z,59.40
2023-08-16T18:27:21.790Z,59.50
2023-08-16T18:30:28.945Z,59.50
2023-08-16T18:33:36.313Z,59.60
2023-08-16T18:36:41.561Z,59.70
2023-08-16T18:39:48.950Z,59.80
2023-08-16T18:42:59.586Z,59.90
2023-08-16T18:46:07.004Z,59.90
2023-08-16T18:49:12.422Z,60.00
2023-08-16T18:52:22.759Z,60.10
2023-08-16T18:55:28.330Z,60.20
2023-08-16T18:58:38.693Z,60.20
2023-08-16T19:01:44.209Z,60.30
2023-08-16T19:04:51.555Z,60.40
2023-08-16T19:08:00.051Z,60.50
2023-08-16T19:11:07.482Z,60.70
2023-08-16T19:14:17.623Z,60.70
2023-08-16T19:17:25.437Z,61.00
2023-08-16T19:20:30.941Z,60.90
2023-08-16T19:23:38.276Z,61.00
2023-08-16T19:26:43.682Z,61.10
2023-08-16T19:29:55.111Z,61.20
2023-08-16T19:33:00.920Z,61.30
2023-08-16T19:36:09.071Z,61.30
2023-08-16T19:39:15.026Z,61.40
2023-08-16T19:42:22.805Z,61.60
2023-08-16T19:45:30.750Z,61.70
2023-08-16T19:48:38.224Z,61.80
2023-08-16T19:51:43.622Z,61.90
2023-08-16T19:54:51.081Z,62.00
2023-08-16T19:57:57.035Z,62.10
2023-08-16T20:01:10.278Z,62.10
2023-08-16T20:04:17.615Z,62.40
2023-08-16T20:07:25.378Z,62.40
2023-08-16T20:10:30.844Z,62.40
2023-08-16T20:13:38.541Z,62.60
2023-08-16T20:16:47.392Z,62.70
2023-08-16T20:19:55.237Z,62.80
2023-08-16T20:23:03.716Z,62.90
2023-08-16T20:26:11.955Z,63.00
2023-08-16T20:29:18.789Z,63.00
2023-08-16T20:32:28.960Z,63.10
2023-08-16T20:35:34.363Z,63.20
2023-08-16T20:38:41.859Z,63.20
2023-08-16T20:41:47.193Z,63.30
2023-08-16T20:44:54.555Z,63.40
2023-08-16T20:48:02.965Z,63.50
2023-08-16T20:51:10.614Z,63.50
2023-08-16T20:54:16.063Z,63.50
2023-08-16T20:57:23.959Z,63.60
2023-08-16T21:00:30.811Z,63.70
2023-08-16T21:03:40.749Z,63.70
2023-08-16T21:06:46.225Z,63.80
2023-08-16T21:09:54.803Z,63.80
2023-08-16T21:13:00.091Z,63.90
2023-08-16T21:16:07.808Z,64.00
2023-08-16T21:19:16.487Z,64.20
2023-08-16T21:22:23.767Z,64.80
2023-08-16T21:25:29.184Z,64.40
2023-08-16T21:28:36.519Z,64.50
2023-08-16T21:31:42.497Z,64.60
2023-08-16T21:34:52.440Z,64.70
2023-08-16T21:37:57.815Z,64.90
2023-08-16T21:41:05.191Z,64.90
2023-08-16T21:44:10.514Z,65.00
2023-08-16T21:47:17.981Z,65.10
2023-08-16T21:50:26.014Z,65.20
2023-08-16T21:53:33.387Z,65.30
2023-08-16T21:56:38.652Z,65.40
2023-08-16T21:59:46.149Z,65.60
2023-08-16T22:02:51.450Z,65.60
2023-08-16T22:06:01.513Z,65.70
2023-08-16T22:09:07.861Z,65.80
2023-08-16T22:12:15.223Z,65.90
2023-08-16T22:15:24.810Z,66.00
2023-08-16T22:18:32.129Z,66.10
2023-08-16T22:21:40.046Z,66.30
2023-08-16T22:24:47.575Z,66.40
2023-08-16T22:27:53.106Z,66.50
2023-08-16T22:31:00.567Z,66.50
2023-08-16T22:34:06.064Z,66.60
2023-08-16T22:37:16.103Z,66.60
2023-08-16T22:40:21.615Z,66.70
2023-08-16T22:43:31.737Z,66.80
2023-08-16T22:46:37.200Z,66.90
2023-08-16T22:49:45.086Z,67.10
2023-08-16T22:52:54.236Z,67.10
2023-08-16T22:56:01.579Z,67.20
2023-08-16T22:59:07.167Z,67.20
2023-08-16T23:02:14.525Z,67.30
2023-08-16T23:05:20.055Z,67.30
2023-08-16T23:08:32.084Z,67.40
2023-08-16T23:11:37.483Z,67.50
2023-08-16T23:14:44.856Z,67.50
2023-08-16T23:17:50.202Z,67.50
2023-08-16T23:20:57.584Z,67.60
2023-08-16T23:24:05.510Z,67.60
2023-08-16T23:27:12.929Z,67.80
2023-08-16T23:30:20.280Z,67.80
2023-08-16T23:33:28.108Z,67.90
2023-08-16T23:36:33.952Z,67.90
2023-08-16T23:39:44.055Z,68.10
2023-08-16T23:42:50.782Z,68.20
2023-08-16T23:45:58.192Z,68.20
2023-08-16T23:49:03.672Z,68.20
2023-08-16T23:52:11.028Z,68.30
2023-08-16T23:55:19.061Z,68.40
2023-08-16T23:58:26.575Z,68.60
